KWRI/WRI METAR and TAF weather

Enter ICAO airport designator
Station Type Date Time Source
KWRI METAR 2021/02/25 15:56 UTC NOAA

KWRI 251556Z 30015KT 10SM FEW160 09/M05 A3015 RMK AO2A SLP210 T00861049 $


Station Type Date Time Source
KWRI Decoded METAR 2021/02/25 15:56 UTC NOAA

Mcguire Air Force Base, NJ, United States (KWRI) 40-01N 074-36W
Feb 25, 2021 - 10:56 AM EST / 2021.02.25 1556 UTC
Wind: from the WNW (300 degrees) at 17 MPH (15 KT):0
Visibility: 10 mile(s):0
Sky conditions: mostly clear
Temperature: 47.5 F (8.6 C)
Dew Point: 23.2 F (-4.9 C)
Relative Humidity: 38%
Pressure (altimeter): 30.15 in. Hg (1020 hPa)
ob: KWRI 251556Z 30015KT 10SM FEW160 09/M05 A3015 RMK AO2A SLP210 T00861049
cycle: 16

Station Type Date Time Source
KWRI TAF 2021/02/25 16:58 UTC NOAA

TAF KWRI 251600Z 2516/2616 31012KT 9999 FEW250 QNH2991INS
TEMPO 2516/2520 35012G20KT
BECMG 2520/2521 32009KT 9999 SKC QNH3018INS
BECMG 2600/2601 34005KT 9999 FEW200 QNH3026INS
BECMG 2605/2606 VRB04KT 9999 SCT180 QNH3032INS
BECMG 2612/2613 14006KT 9999 SKC QNH3043INS TX09/2519Z TNM03/2610Z

Example: see airport list